Accueil
METAR-TAF:

METAR-TAF

Aéroports :

Berlin, Allemagne

Aéroport Otto-Lilienthal de Berlin-Tegel

latitude: 52-34N, longitude: 013-19E, altitude: 37 m

Observation

Le bulletin a été fait il y a 6 minutes, à 23:50 UTC
Vent 2 kt de ouest/sud-ouest
Température 15°C
Humidité 67%
Pression 1018 hPa
Visibilité 10 km ou plus
pas de nuages en-dessous de 1500 mètres et pas de cumulonimbus.

METAR: EDDT 202350Z 25002KT CAVOK 15/09 Q1018

Heure: 01:56 (23:56 UTC)

Prévision

Le bulletin a été fait il y a 56 minutes, à 23:00 UTC
Prévision valable du 21 à 00 UTC au 21 à 24 UTC
Vent 3 kt de direction variable
Visibilité 10 km ou plus
pas de nuages en-dessous de 1500 mètres et pas de cumulonimbus.
Evoluant progressivement
du 21 à 04 UTC au 21 à 07 UTC
Vent 8 kt de nord-ouest
Evoluant progressivement
du 21 à 18 UTC au 21 à 21 UTC
Vent 3 kt de direction variable

TAF: EDDT 202300Z 2100/2124 VRB03KT CAVOK BECMG 2104/2107 32008KT BECMG 2118/2121 VRB03KT

Observations et prévisions météorologiques de plus de 4000 aéroports (messages METAR et TAF).

Les stations disponibles sont représentées par des disques jaunes et rouges sur la carte.

Passer la souris dessus pour voir le nom de la station.

Cliquer dessus pour voir les observations et prévisions météorologiques.

Pour changer de carte: cliquez sur les boutons verts avec une croix noire pour zoomer, sur le bouton vert avec un tiret pour effectuer un zoom arrière, ou sur les flèches vertes pour les cartes adjacentes.


METAR-TAF: